Time;durP1;ratioP1;P1;durP2;ratioP2;P2;SDS_P1;SDS_P2;PMS_P1;PMS_P2;Temp;Humidity;BMP_temperature;BMP_pressure;BME280_temperature;BME280_humidity;BME280_pressure;Samples;Min_cycle;Max_cycle;Signal;HPM_P1;HPM_P2
2022/10/16 00:01:10;;;;;;;27.57;17.87;;;;;;;8.65;90.97;100991.53;1420090;91;21422;-82
2022/10/16 00:03:38;;;;;;;23.83;16.47;;;;;;;8.62;91.05;100988.30;1414830;92;22369;-83
2022/10/16 00:06:06;;;;;;;22.93;15.47;;;;;;;8.58;90.92;100989.86;1426370;91;22310;-82
2022/10/16 00:08:32;;;;;;;26.50;15.50;;;;;;;8.55;90.68;100986.64;1419830;90;21465;-80
2022/10/16 00:11:06;;;;;;;28.00;17.73;;;;;;;8.56;90.78;100991.77;1406932;90;21496;-82
2022/10/16 00:13:34;;;;;;;24.30;18.80;;;;;;;8.57;90.89;100993.92;1436642;90;21640;-81
2022/10/16 00:16:02;;;;;;;27.93;17.20;;;;;;;8.54;91.14;100991.05;1427049;90;21399;-83
2022/10/16 00:18:29;;;;;;;28.23;16.67;;;;;;;8.52;91.46;100985.08;1419563;90;21518;-82
2022/10/16 00:20:57;;;;;;;26.83;19.23;;;;;;;8.50;91.28;100993.58;1436166;90;21369;-82
2022/10/16 00:23:24;;;;;;;26.00;16.57;;;;;;;8.48;91.28;100995.49;1448580;90;21517;-83
2022/10/16 00:26:01;;;;;;;24.00;16.57;;;;;;;8.48;92.00;100998.12;1425305;90;21533;-82
2022/10/16 00:28:28;;;;;;;24.23;16.13;;;;;;;8.47;92.16;100999.09;1434743;90;21563;-82
2022/10/16 00:30:54;;;;;;;23.73;17.23;;;;;;;8.48;92.31;101002.09;1418578;90;21510;-82
2022/10/16 00:33:21;;;;;;;21.17;15.60;;;;;;;8.51;92.50;101001.84;1444618;90;22360;-83
2022/10/16 00:35:48;;;;;;;25.93;16.37;;;;;;;8.51;92.41;100997.89;1439544;90;21466;-82
2022/10/16 00:38:14;;;;;;;23.53;17.07;;;;;;;8.53;92.25;101000.42;1434014;90;21489;-82
2022/10/16 00:40:41;;;;;;;32.10;18.20;;;;;;;8.50;92.09;100998.86;1419136;90;21429;-82
2022/10/16 00:43:37;;;;;;;28.30;16.30;;;;;;;8.46;91.74;101004.48;1404924;92;21525;-82
2022/10/16 00:46:13;;;;;;;25.30;15.97;;;;;;;8.45;91.47;100998.86;1421037;91;21414;-82
2022/10/16 00:48:40;;;;;;;22.83;15.77;;;;;;;8.42;91.56;101007.84;1420450;91;21665;-80
2022/10/16 00:51:08;;;;;;;25.17;15.00;;;;;;;8.40;92.01;101008.47;1434179;90;21674;-82
2022/10/16 00:53:35;;;;;;;30.83;18.27;;;;;;;8.40;92.10;101008.47;1430821;90;21529;-82
2022/10/16 00:56:01;;;;;;;25.00;15.97;;;;;;;8.42;92.35;101013.13;1417951;92;21592;-82
2022/10/16 00:58:27;;;;;;;32.80;18.60;;;;;;;8.44;92.28;101015.17;1438219;90;21636;-82
2022/10/16 01:00:53;;;;;;;26.00;17.67;;;;;;;8.42;92.41;101011.80;1409308;91;21452;-83
2022/10/16 01:03:36;;;;;;;29.63;18.10;;;;;;;8.41;92.98;101018.53;1436157;90;21617;-82
2022/10/16 01:06:35;;;;;;;24.57;16.37;;;;;;;8.38;92.95;101021.38;1433873;90;22669;-84
2022/10/16 01:09:25;;;;;;;22.77;14.87;;;;;;;8.32;92.76;101019.56;1442633;90;22405;-84
2022/10/16 01:12:00;;;;;;;19.87;14.70;;;;;;;8.29;92.36;101027.72;1444161;90;21669;-85
2022/10/16 01:14:49;;;;;;;25.90;15.33;;;;;;;8.25;91.99;101031.53;1403773;90;21555;-82
2022/10/16 01:17:27;;;;;;;25.03;16.07;;;;;;;8.22;92.05;101038.84;1423115;90;21710;-82
2022/10/16 01:20:30;;;;;;;26.23;16.83;;;;;;;8.19;92.24;101039.91;1446972;90;21525;-83
2022/10/16 01:23:08;;;;;;;30.40;18.53;;;;;;;8.17;92.54;101042.30;1424907;90;21392;-82
2022/10/16 01:25:46;;;;;;;25.10;15.80;;;;;;;8.07;93.01;101039.05;1423786;92;21740;-82
2022/10/16 01:28:14;;;;;;;25.57;16.07;;;;;;;8.04;92.73;101046.36;1432801;90;21544;-82
2022/10/16 01:30:43;;;;;;;24.20;14.23;;;;;;;7.99;92.74;101049.34;1441223;90;21676;-82
2022/10/16 01:33:20;;;;;;;26.63;15.37;;;;;;;7.97;92.59;101050.41;1441992;90;21496;-81
2022/10/16 01:35:52;;;;;;;23.10;14.63;;;;;;;7.98;92.47;101052.11;1447142;90;21583;-82
2022/10/16 01:38:32;;;;;;;23.17;15.53;;;;;;;7.97;92.02;101043.36;1439455;89;22581;-82
2022/10/16 01:41:04;;;;;;;27.67;17.60;;;;;;;7.94;91.92;101048.87;1415296;90;21436;-82
2022/10/16 01:43:35;;;;;;;28.93;18.43;;;;;;;7.90;92.11;101055.30;1424215;90;21636;-83
2022/10/16 01:46:02;;;;;;;28.97;17.90;;;;;;;7.87;92.09;101050.27;1437083;90;22285;-84
2022/10/16 01:48:31;;;;;;;28.77;17.07;;;;;;;7.86;92.07;101052.55;1441269;90;21603;-84
2022/10/16 01:51:05;;;;;;;30.53;18.33;;;;;;;7.86;92.55;101046.80;1439469;90;21632;-84
2022/10/16 01:53:33;;;;;;;23.37;16.50;;;;;;;7.87;92.63;101044.99;1441512;90;21459;-85
2022/10/16 01:56:01;;;;;;;26.20;17.67;;;;;;;7.86;93.96;101048.11;1428170;90;21363;-85
2022/10/16 01:58:34;;;;;;;31.47;15.30;;;;;;;7.84;94.71;101050.50;1422464;90;21525;-83
2022/10/16 02:00:58;;;;;;;29.63;18.05;;;;;;;7.79;94.77;101052.62;1428127;91;22294;-82
2022/10/16 02:03:24;;;;;;;27.87;17.10;;;;;;;7.75;94.86;101053.83;1426329;91;21399;-82
2022/10/16 02:05:56;;;;;;;29.27;18.23;;;;;;;7.69;94.23;101053.32;1424706;90;21458;-82
2022/10/16 02:08:27;;;;;;;27.03;16.93;;;;;;;7.66;94.36;101056.18;1443422;90;21497;-82
2022/10/16 02:10:56;;;;;;;25.13;17.20;;;;;;;7.64;94.06;101062.52;1449301;90;21480;-82
2022/10/16 02:13:28;;;;;;;20.57;14.63;;;;;;;7.62;93.84;101065.73;1424542;90;21437;-83
2022/10/16 02:15:54;;;;;;;21.33;13.77;;;;;;;7.62;93.69;101071.00;1416048;90;21400;-83
2022/10/16 02:18:20;;;;;;;28.00;16.60;;;;;;;7.61;93.15;101067.53;1416642;90;21393;-81
2022/10/16 02:21:04;;;;;;;23.40;15.47;;;;;;;7.58;92.75;101073.02;1430132;90;21840;-84
2022/10/16 02:23:52;;;;;;;33.40;16.93;;;;;;;7.56;92.92;101078.03;1436578;90;21548;-82
2022/10/16 02:26:39;;;;;;;25.87;16.53;;;;;;;7.53;93.00;101080.90;1410034;91;21502;-83
2022/10/16 02:29:10;;;;;;;20.27;14.87;;;;;;;7.45;94.32;101082.31;1420252;90;21407;-85
2022/10/16 02:31:38;;;;;;;;;;;;;;;7.37;95.30;101087.29;1410248;92;22523;-84
2022/10/16 02:34:06;;;;;;;19.87;13.60;;;;;;;7.35;94.48;101089.66;1422081;90;20282;-84
2022/10/16 02:36:34;;;;;;;23.73;15.70;;;;;;;7.36;94.18;101092.65;1418246;90;21555;-83
2022/10/16 02:39:01;;;;;;;23.97;16.87;;;;;;;7.37;94.57;101091.72;1433877;90;22309;-83
2022/10/16 02:41:28;;;;;;;26.47;15.87;;;;;;;7.37;94.33;101093.03;1443342;90;21466;-83
2022/10/16 02:43:54;;;;;;;24.60;15.83;;;;;;;7.38;94.20;101092.91;1428447;90;21392;-83
2022/10/16 02:46:21;;;;;;;24.27;17.13;;;;;;;7.36;93.83;101090.85;1433792;90;21627;-82
2022/10/16 02:48:47;;;;;;;23.93;15.53;;;;;;;7.34;93.29;101094.09;1439137;90;21540;-83
2022/10/16 02:51:13;;;;;;;20.67;14.50;;;;;;;7.32;93.03;101093.84;1437502;90;22423;-83
2022/10/16 02:53:39;;;;;;;31.33;15.60;;;;;;;7.28;92.63;101088.41;1421784;90;21739;-83
2022/10/16 02:56:06;;;;;;;23.57;14.33;;;;;;;7.23;92.55;101088.27;1438651;90;21504;-82
2022/10/16 02:58:32;;;;;;;22.80;14.63;;;;;;;7.19;92.79;101088.14;1440987;90;21480;-82
2022/10/16 03:00:58;;;;;;;20.20;14.40;;;;;;;7.18;92.59;101091.70;1435951;90;21400;-82
2022/10/16 03:03:24;;;;;;;25.37;15.07;;;;;;;7.19;92.62;101091.22;1451366;90;21480;-80
2022/10/16 03:05:50;;;;;;;24.43;16.97;;;;;;;7.17;92.45;101093.98;1434800;90;21444;-82
2022/10/16 03:08:16;;;;;;;23.60;16.00;;;;;;;7.15;92.39;101099.82;1421109;92;21377;-83
2022/10/16 03:10:42;;;;;;;28.77;17.13;;;;;;;7.11;92.65;101102.32;1426642;90;22339;-82
2022/10/16 03:13:08;;;;;;;21.90;15.90;;;;;;;7.08;92.83;101105.17;1434094;90;21340;-83
2022/10/16 03:15:34;;;;;;;27.60;16.20;;;;;;;7.07;92.73;101102.63;1427606;90;21326;-82
2022/10/16 03:18:00;;;;;;;21.83;15.10;;;;;;;7.06;92.86;101103.11;1422958;90;21459;-82
2022/10/16 03:20:26;;;;;;;21.90;14.33;;;;;;;7.06;92.84;101102.28;1442213;90;21480;-82
2022/10/16 03:22:52;;;;;;;21.83;14.87;;;;;;;7.05;92.88;101108.02;1419076;90;21674;-82
2022/10/16 03:25:18;;;;;;;20.73;14.63;;;;;;;7.06;93.25;101107.06;1428160;90;22405;-83
2022/10/16 03:27:44;;;;;;;21.80;15.80;;;;;;;7.05;93.41;101098.81;1424855;91;21533;-82
2022/10/16 03:30:12;;;;;;;20.00;14.17;;;;;;;7.02;93.62;101104.30;1417311;90;21394;-81
2022/10/16 03:32:38;;;;;;;20.17;14.17;;;;;;;7.02;93.56;101110.88;1443650;90;22435;-83
2022/10/16 03:35:04;;;;;;;30.40;14.93;;;;;;;7.00;93.64;101108.81;1429204;90;21364;-82
2022/10/16 03:37:31;;;;;;;23.13;14.97;;;;;;;7.01;93.53;101117.06;1416971;90;21407;-83
2022/10/16 03:39:57;;;;;;;20.27;14.40;;;;;;;7.02;94.83;101113.50;1431751;90;21400;-83
2022/10/16 03:42:24;;;;;;;24.73;15.37;;;;;;;7.05;94.60;101117.23;1428396;90;22317;-83
2022/10/16 03:44:50;;;;;;;20.83;14.20;;;;;;;7.07;94.55;101121.89;1423454;90;21451;-82
2022/10/16 03:47:20;;;;;;;23.73;15.90;;;;;;;7.09;94.80;101125.27;1430051;90;22358;-82
2022/10/16 03:49:44;;;;;;;21.90;14.90;;;;;;;7.11;94.79;101125.17;1410027;91;21658;-82
2022/10/16 03:52:10;;;;;;;27.53;16.93;;;;;;;7.11;94.99;101125.17;1442418;91;21450;-82
2022/10/16 03:54:36;;;;;;;23.57;16.23;;;;;;;7.09;94.86;101125.75;1431956;91;22285;-82
2022/10/16 03:57:02;;;;;;;20.30;14.83;;;;;;;7.10;94.66;101128.73;1432430;91;21466;-82
2022/10/16 03:59:28;;;;;;;26.30;16.13;;;;;;;7.10;94.84;101130.89;1425576;91;22528;-83
2022/10/16 04:01:54;;;;;;;22.33;16.30;;;;;;;7.11;95.31;101135.22;1430186;90;21519;-83
2022/10/16 04:04:20;;;;;;;20.13;15.80;;;;;;;7.14;95.32;101135.00;1410603;92;21541;-83
2022/10/16 04:06:46;;;;;;;23.73;16.27;;;;;;;7.15;95.54;101131.41;1428893;91;21451;-83
2022/10/16 04:09:12;;;;;;;28.07;16.87;;;;;;;7.15;96.10;101130.58;1415744;91;21577;-81
2022/10/16 04:11:38;;;;;;;26.53;17.77;;;;;;;7.11;96.30;101136.55;1436584;91;22472;-84
2022/10/16 04:14:05;;;;;;;20.33;15.57;;;;;;;7.09;96.77;101135.80;1431018;91;21473;-82
2022/10/16 04:16:31;;;;;;;20.73;15.77;;;;;;;7.07;97.42;101135.53;1437881;90;21414;-81
2022/10/16 04:18:57;;;;;;;21.30;15.13;;;;;;;7.07;96.71;101133.73;1434540;90;22002;-81
2022/10/16 04:21:23;;;;;;;22.97;14.17;;;;;;;7.10;96.29;101135.31;1431129;90;21444;-81
2022/10/16 04:23:49;;;;;;;19.07;14.27;;;;;;;7.11;95.86;101129.95;1439721;90;21348;-82
2022/10/16 04:26:15;;;;;;;25.40;16.53;;;;;;;7.12;95.70;101131.63;1447224;90;22332;-79
2022/10/16 04:28:42;;;;;;;19.70;15.40;;;;;;;7.09;95.32;101130.53;1426561;90;21526;-81
2022/10/16 04:31:07;;;;;;;21.37;15.47;;;;;;;7.04;95.03;101124.74;1418339;90;21473;-81
2022/10/16 04:33:34;;;;;;;24.57;16.10;;;;;;;7.02;94.79;101126.66;1438642;90;21385;-81
2022/10/16 04:36:02;;;;;;;24.90;16.70;;;;;;;6.98;94.68;101130.44;1438560;90;22405;-81
2022/10/16 04:38:28;;;;;;;23.17;15.70;;;;;;;6.95;95.42;101136.75;1439536;90;21603;-81
2022/10/16 04:40:55;;;;;;;24.80;15.53;;;;;;;6.94;95.84;101130.30;1426719;90;22631;-81
2022/10/16 04:43:21;;;;;;;23.83;15.97;;;;;;;6.92;96.98;101131.70;1435778;90;21378;-81
2022/10/16 04:45:50;;;;;;;22.03;15.03;;;;;;;6.95;96.43;101125.39;1425449;90;21429;-81
2022/10/16 04:48:16;;;;;;;20.83;15.47;;;;;;;6.98;95.96;101124.70;1426577;90;22302;-82
2022/10/16 04:50:42;;;;;;;23.60;14.93;;;;;;;7.00;95.61;101132.02;1443143;90;21333;-81
2022/10/16 04:53:08;;;;;;;27.47;16.63;;;;;;;6.95;95.96;101124.08;1443300;90;22482;-81
2022/10/16 04:55:34;;;;;;;25.97;15.30;;;;;;;6.86;96.56;101136.09;1438674;90;21583;-83
2022/10/16 04:58:00;;;;;;;25.03;17.60;;;;;;;6.76;96.87;101141.16;1448106;90;21614;-81
2022/10/16 05:00:27;;;;;;;27.40;16.30;;;;;;;6.68;98.08;101138.69;1445557;90;21399;-82
2022/10/16 05:02:53;;;;;;;23.67;16.07;;;;;;;6.64;98.49;101141.13;1441962;90;22100;-82
2022/10/16 05:05:19;;;;;;;17.97;14.43;;;;;;;6.64;97.72;101143.28;1420549;90;22383;-80
2022/10/16 05:07:49;;;;;;;23.20;14.63;;;;;;;6.65;97.17;101143.67;1418703;92;21592;-80
2022/10/16 05:10:15;;;;;;;25.43;16.00;;;;;;;6.68;96.99;101150.04;1419284;90;21599;-79
2022/10/16 05:12:42;;;;;;;28.80;14.07;;;;;;;6.68;97.24;101159.25;1432701;90;21418;-80
2022/10/16 05:15:09;;;;;;;19.37;13.90;;;;;;;6.69;97.88;101164.03;1412215;90;22264;-80
2022/10/16 05:17:35;;;;;;;22.57;13.90;;;;;;;6.68;97.13;101165.82;1420462;91;21489;-80
2022/10/16 05:20:03;;;;;;;16.97;11.67;;;;;;;6.69;96.43;101164.87;1424809;91;22317;-79
2022/10/16 05:22:29;;;;;;;14.90;10.87;;;;;;;6.70;96.23;101163.94;1423411;90;21431;-80
2022/10/16 05:24:55;;;;;;;13.23;10.67;;;;;;;6.69;95.85;101168.81;1428828;90;21496;-80
2022/10/16 05:27:21;;;;;;;15.00;9.83;;;;;;;6.66;95.54;101172.13;1426671;91;21607;-80
2022/10/16 05:29:49;;;;;;;22.83;10.37;;;;;;;6.63;95.41;101178.44;1419320;90;21392;-79
2022/10/16 05:32:17;;;;;;;19.07;10.40;;;;;;;6.63;95.09;101186.33;1440381;90;21466;-80
2022/10/16 05:34:44;;;;;;;14.60;9.97;;;;;;;6.66;94.95;101182.17;1440106;90;21577;-81
2022/10/16 05:37:11;;;;;;;15.53;10.27;;;;;;;6.66;95.01;101182.17;1434811;90;21495;-81
2022/10/16 05:39:39;;;;;;;19.17;9.93;;;;;;;6.71;94.89;101189.29;1437846;90;22471;-81
2022/10/16 05:42:05;;;;;;;16.47;10.17;;;;;;;6.73;95.70;101191.35;1436121;90;21362;-82
2022/10/16 05:44:31;;;;;;;17.33;9.97;;;;;;;6.77;95.72;101191.50;1415541;92;21459;-82
2022/10/16 05:46:58;;;;;;;17.23;11.70;;;;;;;6.82;95.74;101198.22;1418582;92;21481;-83
2022/10/16 05:49:24;;;;;;;15.87;10.37;;;;;;;6.91;95.89;101202.88;1423706;92;21378;-82
2022/10/16 05:51:50;;;;;;;20.63;11.23;;;;;;;6.99;96.08;101196.15;1426101;92;21547;-81
2022/10/16 05:54:16;;;;;;;18.97;12.03;;;;;;;7.07;96.34;101201.34;1423498;92;21540;-83
2022/10/16 05:56:43;;;;;;;12.53;9.60;;;;;;;7.13;96.32;101212.76;1425152;89;21339;-81
2022/10/16 05:59:09;;;;;;;14.73;10.43;;;;;;;7.17;96.33;101215.08;1427102;90;21488;-81
2022/10/16 06:01:35;;;;;;;18.10;11.60;;;;;;;7.23;96.92;101214.66;1404958;90;21489;-81
2022/10/16 06:04:02;;;;;;;14.07;12.33;;;;;;;7.30;97.62;101220.80;1429130;90;21518;-81
2022/10/16 06:06:30;;;;;;;14.27;11.70;;;;;;;7.41;97.22;101220.90;1416150;90;21551;-82
2022/10/16 06:08:57;;;;;;;21.53;13.13;;;;;;;7.52;97.53;101227.58;1421134;90;21459;-80
2022/10/16 06:11:30;;;;;;;14.73;12.37;;;;;;;7.67;97.66;101225.64;1418828;90;21526;-82
2022/10/16 06:14:06;;;;;;;22.57;17.50;;;;;;;7.82;98.21;101230.28;1422391;90;22317;-81
2022/10/16 06:16:31;;;;;;;22.73;17.60;;;;;;;7.96;98.06;101236.72;1444129;89;21610;-81
2022/10/16 06:18:59;;;;;;;24.23;19.63;;;;;;;8.12;97.88;101241.25;1445938;90;22437;-81
2022/10/16 06:21:27;;;;;;;28.33;20.17;;;;;;;8.26;98.26;101252.60;1460226;90;21441;-82
2022/10/16 06:23:54;;;;;;;29.90;20.60;;;;;;;8.38;97.89;101251.69;1446806;91;21442;-83
2022/10/16 06:26:24;;;;;;;30.77;21.83;;;;;;;8.52;97.81;101254.66;1429056;91;21377;-82
2022/10/16 06:28:50;;;;;;;31.47;21.33;;;;;;;8.66;97.86;101258.89;1413587;91;22287;-82
2022/10/16 06:31:17;;;;;;;25.43;17.83;;;;;;;8.84;98.48;101273.84;1425164;91;21519;-83
2022/10/16 06:33:45;;;;;;;27.33;17.57;;;;;;;9.03;98.60;101274.98;1412738;91;21466;-82
2022/10/16 06:36:15;;;;;;;21.87;15.97;;;;;;;9.24;98.79;101275.61;1410675;91;21414;-83
2022/10/16 06:38:42;;;;;;;23.40;16.57;;;;;;;9.44;98.63;101279.34;1432158;89;21458;-82
2022/10/16 06:41:12;;;;;;;24.67;18.17;;;;;;;9.64;98.28;101285.72;1421038;91;21429;-83
2022/10/16 06:43:38;;;;;;;24.18;16.93;;;;;;;9.82;97.69;101289.55;1409262;92;22265;-82
2022/10/16 06:46:09;;;;;;;30.63;20.43;;;;;;;10.00;97.25;101293.84;1420071;91;21421;-80
2022/10/16 06:48:35;;;;;;;38.63;24.10;;;;;;;10.16;96.65;101289.50;1438570;89;21391;-82
2022/10/16 06:51:06;;;;;;;31.97;22.33;;;;;;;10.30;96.30;101297.19;1433683;90;22634;-82
2022/10/16 06:53:35;;;;;;;;;;;;;;;10.47;95.81;101296.27;1421902;91;21430;-82
2022/10/16 06:56:17;;;;;;;28.73;17.37;;;;;;;10.60;95.32;101300.93;1429698;91;20274;-90
2022/10/16 06:58:43;;;;;;;32.50;17.43;;;;;;;10.74;94.98;101300.63;1434089;90;21422;-91
2022/10/16 07:01:11;;;;;;;24.83;17.63;;;;;;;10.92;94.72;101301.39;1431794;90;22141;-91
2022/10/16 07:03:40;;;;;;;28.57;17.97;;;;;;;11.07;94.06;101309.36;1420646;90;21453;-92
2022/10/16 07:06:08;;;;;;;26.83;16.90;;;;;;;11.24;93.52;101312.74;1423763;90;22281;-91
2022/10/16 07:08:38;;;;;;;24.40;17.03;;;;;;;11.42;93.12;101313.47;1422756;92;22353;-92
2022/10/16 07:11:08;;;;;;;26.73;17.90;;;;;;;11.56;92.32;101314.94;1411554;91;21592;-92
2022/10/16 07:13:40;;;;;;;25.80;18.12;;;;;;;11.67;91.41;101320.99;1420274;92;21805;-92
2022/10/16 07:16:13;;;;;;;24.53;18.40;;;;;;;11.80;91.01;101319.95;1426209;90;21524;-92
2022/10/16 07:18:42;;;;;;;30.40;17.20;;;;;;;11.91;90.35;101319.85;1436229;90;21392;-92
2022/10/16 07:21:16;;;;;;;27.97;18.23;;;;;;;12.07;90.64;101318.03;1440900;90;22737;-88
2022/10/16 07:23:43;;;;;;;24.20;16.03;;;;;;;12.23;89.96;101318.36;1442786;90;21465;-90
2022/10/16 07:26:10;;;;;;;26.37;15.90;;;;;;;12.38;89.52;101317.47;1439180;90;22358;-90
2022/10/16 07:28:39;;;;;;;24.27;15.73;;;;;;;12.53;88.58;101316.08;1436419;90;22287;-89
2022/10/16 07:31:10;;;;;;;15.53;13.60;;;;;;;12.67;87.58;101316.66;1423274;90;21451;-91
2022/10/16 07:33:38;;;;;;;23.77;14.27;;;;;;;12.79;86.75;101323.50;1446855;89;22339;-92
2022/10/16 07:36:05;;;;;;;21.13;13.77;;;;;;;12.87;85.65;101313.85;1449566;89;22419;-92
2022/10/16 07:38:32;;;;;;;16.50;13.10;;;;;;;12.94;84.48;101323.91;1437778;89;21481;-89
2022/10/16 07:41:05;;;;;;;17.20;13.93;;;;;;;13.03;83.84;101318.61;1447312;89;23245;-91
2022/10/16 07:43:32;;;;;;;28.87;13.97;;;;;;;13.10;83.73;101318.37;1461117;89;21509;-91
2022/10/16 07:45:59;;;;;;;17.90;12.27;;;;;;;13.25;83.56;101325.90;1441342;89;21520;-91
2022/10/16 07:48:28;;;;;;;18.63;13.30;;;;;;;13.37;83.25;101326.60;1449439;89;21524;-91
2022/10/16 07:51:02;;;;;;;22.20;14.60;;;;;;;13.53;83.17;101329.00;1455730;89;21398;-91
2022/10/16 07:53:28;;;;;;;18.97;14.47;;;;;;;13.71;82.61;101333.56;1463144;89;21450;-89
2022/10/16 07:55:59;;;;;;;39.00;14.37;;;;;;;13.84;81.92;101330.09;1441887;88;21569;-90
2022/10/16 07:58:27;;;;;;;19.83;13.47;;;;;;;13.96;81.04;101334.23;1431752;90;22243;-90
2022/10/16 08:00:54;;;;;;;18.87;13.20;;;;;;;14.10;79.92;101332.07;1418921;90;22153;-92
2022/10/16 08:03:20;;;;;;;24.67;14.50;;;;;;;14.20;79.62;101331.00;1423928;90;21385;-92
2022/10/16 08:05:47;;;;;;;19.67;12.33;;;;;;;14.26;77.86;101333.56;1419652;90;21443;-91
2022/10/16 08:08:15;;;;;;;25.73;15.17;;;;;;;14.35;78.03;101333.99;1422938;90;21684;-92
2022/10/16 08:10:41;;;;;;;19.87;13.10;;;;;;;14.45;77.62;101326.79;1431969;91;21488;-92
2022/10/16 08:13:08;;;;;;;16.57;13.83;;;;;;;14.56;76.39;101326.27;1432812;90;21467;-92
2022/10/16 08:15:34;;;;;;;21.33;13.27;;;;;;;14.66;77.15;101328.34;1430375;90;21473;-92
2022/10/16 08:18:05;;;;;;;15.20;12.37;;;;;;;14.77;76.45;101331.29;1424189;90;21475;-91
2022/10/16 08:20:32;;;;;;;;;;;;;;;14.91;76.92;101343.24;1435663;90;21378;-90
2022/10/16 08:23:02;;;;;;;20.50;12.13;;;;;;;15.01;75.21;101342.64;1430773;91;20476;-90
2022/10/16 08:25:29;;;;;;;17.50;13.07;;;;;;;15.15;75.70;101347.92;1434940;91;21451;-90
2022/10/16 08:27:55;;;;;;;22.47;14.03;;;;;;;15.31;75.38;101345.38;1437362;91;22308;-91
2022/10/16 08:30:24;;;;;;;21.13;14.10;;;;;;;15.44;74.78;101342.28;1423998;90;21478;-90
2022/10/16 08:32:50;;;;;;;21.67;13.37;;;;;;;15.53;73.38;101349.34;1439611;90;21414;-91
2022/10/16 08:35:16;;;;;;;57.53;14.33;;;;;;;15.64;73.37;101350.41;1437135;89;22433;-91
2022/10/16 08:37:43;;;;;;;20.23;13.17;;;;;;;15.68;71.90;101350.48;1422269;90;21622;-92
2022/10/16 08:40:21;;;;;;;22.83;13.07;;;;;;;15.70;71.79;101355.14;1409271;91;21731;-91
2022/10/16 08:42:58;;;;;;;13.10;10.70;;;;;;;15.76;71.96;101353.17;1435944;90;22012;-91
2022/10/16 08:46:04;;;;;;;19.83;13.47;;;;;;;15.84;71.64;101355.05;1412469;92;21590;-91
2022/10/16 08:48:55;;;;;;;16.67;12.33;;;;;;;16.00;71.83;101354.30;1421112;90;21435;-93
2022/10/16 08:51:36;;;;;;;15.97;11.73;;;;;;;16.14;70.29;101348.35;1437161;90;21517;-94
2022/10/16 08:54:06;;;;;;;14.80;11.37;;;;;;;16.31;70.57;101355.06;1436974;91;21503;-91
2022/10/16 08:56:33;;;;;;;21.35;12.05;;;;;;;16.44;69.38;101354.11;1436369;91;21455;-91
2022/10/16 08:59:00;;;;;;;14.80;10.90;;;;;;;16.59;69.38;101347.62;1407563;90;22446;-91
2022/10/16 09:01:38;;;;;;;17.00;11.93;;;;;;;16.74;68.93;101342.45;1434826;89;21508;-92
2022/10/16 09:04:44;;;;;;;18.03;11.60;;;;;;;16.97;68.12;101350.18;1458487;89;21487;-90
2022/10/16 09:07:38;;;;;;;13.70;10.05;;;;;;;17.30;67.69;101349.67;1430705;91;21502;-94
2022/10/16 09:10:13;;;;;;;12.53;10.03;;;;;;;17.94;66.54;101360.92;1439042;89;22427;-93
2022/10/16 09:13:14;;;;;;;18.90;10.28;;;;;;;18.64;64.59;101354.20;1444005;89;21495;-92
2022/10/16 09:16:17;;;;;;;19.12;10.53;;;;;;;19.35;62.61;101346.75;1447261;89;21555;-92
2022/10/16 09:19:06;;;;;;;14.95;10.08;;;;;;;20.15;60.25;101353.26;1439404;89;21392;-92
2022/10/16 09:21:47;;;;;;;13.43;9.58;;;;;;;20.78;52.56;101356.77;1421798;90;22493;-91
2022/10/16 09:24:22;;;;;;;11.50;8.80;;;;;;;21.53;55.89;101359.37;1432434;90;21554;-93
2022/10/16 09:26:48;;;;;;;16.52;8.25;;;;;;;22.03;53.78;101364.92;1442235;90;21644;-92
2022/10/16 09:29:16;;;;;;;12.53;7.40;;;;;;;22.44;52.55;101360.54;1428743;90;21540;-93
2022/10/16 09:31:43;;;;;;;16.20;8.35;;;;;;;22.72;49.87;101361.23;1409469;90;22169;-92
2022/10/16 09:34:18;;;;;;;13.68;7.78;;;;;;;23.15;49.93;101362.23;1427173;90;21481;-90
2022/10/16 09:36:46;;;;;;;10.38;8.40;;;;;;;23.38;49.12;101360.45;1417904;90;21436;-92
2022/10/16 09:39:12;;;;;;;;;;;;;;;23.73;48.26;101360.20;1429685;91;21474;-91
2022/10/16 09:41:43;;;;;;;11.93;8.13;;;;;;;23.89;45.94;101360.80;1430332;91;20236;-91
2022/10/16 09:44:31;;;;;;;12.28;8.15;;;;;;;23.80;41.65;101361.02;1440775;90;21480;-91
2022/10/16 09:47:14;;;;;;;37.55;9.05;;;;;;;24.06;46.41;101356.58;1435068;90;22485;-92
2022/10/16 09:49:59;;;;;;;11.35;7.17;;;;;;;24.11;45.23;101364.88;1424185;90;21544;-94
2022/10/16 09:52:26;;;;;;;12.40;7.70;;;;;;;24.13;43.32;101364.65;1441932;90;22390;-92
2022/10/16 10:08:28;;;;;;;12.55;7.70;;;;;;;26.03;37.57;101361.17;1460113;85;28770;-95
2022/10/16 10:10:54;;;;;;;12.43;7.25;;;;;;;25.62;39.20;101364.02;1424266;89;22350;-93
2022/10/16 10:13:24;;;;;;;11.80;7.60;;;;;;;25.53;39.46;101362.66;1456910;89;21463;-93
2022/10/16 10:15:51;;;;;;;10.98;8.08;;;;;;;25.49;39.75;101360.61;1458821;89;21552;-95
2022/10/16 10:18:21;;;;;;;20.27;7.87;;;;;;;25.47;39.94;101359.50;1439229;89;21470;-94
2022/10/16 10:21:01;;;;;;;9.73;7.45;;;;;;;25.47;39.47;101356.78;1450398;88;22416;-94
2022/10/16 10:23:30;;;;;;;14.18;7.97;;;;;;;25.36;39.77;101352.09;1452100;89;21538;-93
2022/10/16 10:26:13;;;;;;;11.18;7.03;;;;;;;25.37;40.29;101351.03;1456104;89;21427;-94
2022/10/16 10:28:51;;;;;;;13.18;6.33;;;;;;;25.28;39.82;101352.37;1456086;89;21426;-94
2022/10/16 10:31:29;;;;;;;11.38;6.03;;;;;;;25.25;40.84;101350.12;1454780;89;21471;-95
2022/10/16 10:34:29;;;;;;;8.90;6.25;;;;;;;25.23;40.21;101356.27;1456389;89;22490;-92
2022/10/16 10:37:28;;;;;;;9.15;6.25;;;;;;;25.07;40.32;101353.05;1467074;89;21514;-94
2022/10/16 10:40:09;;;;;;;23.20;6.75;;;;;;;24.57;38.89;101351.66;1461376;88;21604;-92
2022/10/16 10:42:49;;;;;;;11.00;6.85;;;;;;;24.48;40.51;101357.83;1441809;88;21390;-86
2022/10/16 10:45:27;;;;;;;8.65;6.83;;;;;;;24.18;40.36;101350.79;1437083;88;22431;-92
2022/10/16 10:48:14;;;;;;;9.43;6.45;;;;;;;24.13;40.46;101349.25;1434744;90;21508;-92
2022/10/16 10:50:51;;;;;;;12.13;5.97;;;;;;;24.07;40.45;101343.35;1442494;90;21516;-94
2022/10/16 10:53:38;;;;;;;10.32;6.58;;;;;;;24.10;40.54;101349.68;1419037;89;21384;-94
2022/10/16 10:56:25;;;;;;;13.65;7.25;;;;;;;24.23;40.72;101340.16;1474005;88;23049;-95
2022/10/16 10:59:24;;;;;;;14.30;6.37;;;;;;;24.35;40.66;101340.84;1462492;88;21500;-94
2022/10/16 11:02:02;;;;;;;9.00;6.17;;;;;;;24.30;39.28;101346.88;1438857;89;21375;-94
2022/10/16 11:04:56;;;;;;;7.33;6.45;;;;;;;24.29;39.67;101350.11;1442407;89;22226;-95
2022/10/16 11:07:36;;;;;;;7.55;5.67;;;;;;;24.41;39.99;101345.37;1450824;89;21351;-95
2022/10/16 11:10:11;;;;;;;10.85;5.70;;;;;;;23.97;39.41;101338.94;1447351;90;21946;-91
2022/10/16 11:12:42;;;;;;;13.00;6.60;;;;;;;24.15;40.31;101329.59;1438178;89;21426;-94
2022/10/16 11:20:26;;;;;;;9.40;4.80;;;;;;;24.02;39.51;101330.98;1469265;86;21790;-90
2022/10/16 11:58:03;;;;;;;7.95;4.87;;;;;;;25.77;36.26;101315.37;1343716;88;21744;-96
2022/10/16 12:00:41;;;;;;;12.58;5.42;;;;;;;25.62;36.43;101310.34;1380139;94;21489;-91
2022/10/16 12:03:19;;;;;;;13.43;5.15;;;;;;;25.56;36.63;101307.18;1376622;94;21648;-92
2022/10/16 12:06:35;;;;;;;5.83;4.80;;;;;;;25.38;35.54;101304.77;1398766;94;21566;-94
2022/10/16 12:09:03;;;;;;;6.12;4.67;;;;;;;25.13;36.12;101306.66;1389803;94;21574;-92
2022/10/16 12:11:34;;;;;;;9.55;4.83;;;;;;;24.99;36.66;101299.98;1396645;94;21581;-94
2022/10/16 12:14:18;;;;;;;10.30;5.70;;;;;;;25.11;37.09;101302.80;1391887;94;21499;-94
2022/10/16 12:17:05;;;;;;;11.50;6.45;;;;;;;24.97;37.04;101297.20;1390344;94;21618;-89
2022/10/16 12:19:31;;;;;;;6.08;4.87;;;;;;;24.80;37.03;101292.03;1396398;94;21759;-92
2022/10/16 12:22:01;;;;;;;9.63;5.10;;;;;;;24.79;37.35;101291.21;1394382;94;22267;-90
2022/10/16 12:24:43;;;;;;;7.95;4.75;;;;;;;24.68;37.79;101295.45;1398106;94;21485;-95
2022/10/16 12:27:31;;;;;;;12.37;5.03;;;;;;;24.55;37.91;101296.92;1401010;94;21433;-94
2022/10/16 12:30:05;;;;;;;10.85;5.17;;;;;;;24.38;37.93;101293.88;1391498;94;21676;-94